sensor_id;sensor_type;location;lat;lon;timestamp;temperature;humidity
13251;DHT22;6692;50.710;7.180;2022-10-30T00:01:16;17.20;99.90
13251;DHT22;6692;50.710;7.180;2022-10-30T00:03:17;17.20;99.90
13251;DHT22;6692;50.710;7.180;2022-10-30T00:05:18;17.20;99.90
13251;DHT22;6692;50.710;7.180;2022-10-30T00:07:19;17.20;99.90
13251;DHT22;6692;50.710;7.180;2022-10-30T00:09:20;17.10;99.90
13251;DHT22;6692;50.710;7.180;2022-10-30T00:11:20;17.10;99.90
13251;DHT22;6692;50.710;7.180;2022-10-30T00:13:21;17.10;99.90
13251;DHT22;6692;50.710;7.180;2022-10-30T00:15:22;17.10;99.90
13251;DHT22;6692;50.710;7.180;2022-10-30T00:17:22;17.00;99.90
13251;DHT22;6692;50.710;7.180;2022-10-30T00:19:23;17.00;99.90
13251;DHT22;6692;50.710;7.180;2022-10-30T00:21:24;17.00;99.90
13251;DHT22;6692;50.710;7.180;2022-10-30T00:23:25;17.00;99.90
13251;DHT22;6692;50.710;7.180;2022-10-30T00:25:26;16.90;99.90
13251;DHT22;6692;50.710;7.180;2022-10-30T00:27:27;16.90;99.90
13251;DHT22;6692;50.710;7.180;2022-10-30T00:29:27;16.90;99.90
13251;DHT22;6692;50.710;7.180;2022-10-30T00:31:28;16.90;99.90
13251;DHT22;6692;50.710;7.180;2022-10-30T00:33:29;16.80;99.90
13251;DHT22;6692;50.710;7.180;2022-10-30T00:35:30;16.80;99.90
13251;DHT22;6692;50.710;7.180;2022-10-30T00:37:30;16.80;99.90
13251;DHT22;6692;50.710;7.180;2022-10-30T00:39:31;16.80;99.90
13251;DHT22;6692;50.710;7.180;2022-10-30T00:41:32;16.80;99.90
13251;DHT22;6692;50.710;7.180;2022-10-30T00:43:34;16.80;99.90
13251;DHT22;6692;50.710;7.180;2022-10-30T00:45:33;16.70;99.90
13251;DHT22;6692;50.710;7.180;2022-10-30T00:47:37;16.70;99.90
13251;DHT22;6692;50.710;7.180;2022-10-30T00:49:37;16.60;99.90
13251;DHT22;6692;50.710;7.180;2022-10-30T00:51:37;16.60;99.90
13251;DHT22;6692;50.710;7.180;2022-10-30T00:53:37;16.60;99.90
13251;DHT22;6692;50.710;7.180;2022-10-30T00:55:40;16.50;99.90
13251;DHT22;6692;50.710;7.180;2022-10-30T00:57:39;16.50;99.90
13251;DHT22;6692;50.710;7.180;2022-10-30T00:59:40;16.50;99.90
13251;DHT22;6692;50.710;7.180;2022-10-30T01:01:41;16.40;99.90
13251;DHT22;6692;50.710;7.180;2022-10-30T01:03:41;16.40;99.90
13251;DHT22;6692;50.710;7.180;2022-10-30T01:05:42;16.30;99.90
13251;DHT22;6692;50.710;7.180;2022-10-30T01:07:42;16.20;99.90
13251;DHT22;6692;50.710;7.180;2022-10-30T01:09:44;16.20;99.90
13251;DHT22;6692;50.710;7.180;2022-10-30T01:11:44;16.10;99.90
13251;DHT22;6692;50.710;7.180;2022-10-30T01:13:45;16.10;99.90
13251;DHT22;6692;50.710;7.180;2022-10-30T01:15:52;16.10;99.90
13251;DHT22;6692;50.710;7.180;2022-10-30T01:18:14;16.00;99.90
13251;DHT22;6692;50.710;7.180;2022-10-30T01:20:19;16.00;99.90
13251;DHT22;6692;50.710;7.180;2022-10-30T01:24:30;15.90;99.90
13251;DHT22;6692;50.710;7.180;2022-10-30T01:26:46;15.90;99.90
13251;DHT22;6692;50.710;7.180;2022-10-30T01:31:14;16.00;99.90
13251;DHT22;6692;50.710;7.180;2022-10-30T01:33:24;16.00;99.90
13251;DHT22;6692;50.710;7.180;2022-10-30T01:35:26;16.00;99.90
13251;DHT22;6692;50.710;7.180;2022-10-30T01:37:27;16.00;99.90
13251;DHT22;6692;50.710;7.180;2022-10-30T01:39:25;16.00;99.90
13251;DHT22;6692;50.710;7.180;2022-10-30T01:41:26;16.00;99.90
13251;DHT22;6692;50.710;7.180;2022-10-30T01:43:27;16.10;99.90
13251;DHT22;6692;50.710;7.180;2022-10-30T01:45:56;16.10;99.90
13251;DHT22;6692;50.710;7.180;2022-10-30T01:48:21;16.20;99.90
13251;DHT22;6692;50.710;7.180;2022-10-30T01:50:31;16.20;99.90
13251;DHT22;6692;50.710;7.180;2022-10-30T01:52:41;16.30;99.90
13251;DHT22;6692;50.710;7.180;2022-10-30T01:54:44;16.30;99.90
13251;DHT22;6692;50.710;7.180;2022-10-30T01:56:45;16.40;99.90
13251;DHT22;6692;50.710;7.180;2022-10-30T01:59:08;16.40;99.90
13251;DHT22;6692;50.710;7.180;2022-10-30T02:01:07;16.50;99.90
13251;DHT22;6692;50.710;7.180;2022-10-30T02:03:08;16.70;99.90
13251;DHT22;6692;50.710;7.180;2022-10-30T02:05:09;16.80;99.90
13251;DHT22;6692;50.710;7.180;2022-10-30T02:07:10;16.80;99.90
13251;DHT22;6692;50.710;7.180;2022-10-30T02:09:11;16.80;99.90
13251;DHT22;6692;50.710;7.180;2022-10-30T02:11:11;16.80;99.90
13251;DHT22;6692;50.710;7.180;2022-10-30T02:13:12;16.70;99.90
13251;DHT22;6692;50.710;7.180;2022-10-30T02:15:13;16.60;99.90
13251;DHT22;6692;50.710;7.180;2022-10-30T02:17:15;16.50;99.90
13251;DHT22;6692;50.710;7.180;2022-10-30T02:19:15;16.50;99.90
13251;DHT22;6692;50.710;7.180;2022-10-30T02:21:16;16.50;99.90
13251;DHT22;6692;50.710;7.180;2022-10-30T02:23:17;16.50;99.90
13251;DHT22;6692;50.710;7.180;2022-10-30T02:25:17;16.40;99.90
13251;DHT22;6692;50.710;7.180;2022-10-30T02:27:18;16.30;99.90
13251;DHT22;6692;50.710;7.180;2022-10-30T02:29:19;16.20;99.90
13251;DHT22;6692;50.710;7.180;2022-10-30T02:31:20;16.20;99.90
13251;DHT22;6692;50.710;7.180;2022-10-30T02:33:21;16.10;99.90
13251;DHT22;6692;50.710;7.180;2022-10-30T02:35:21;16.10;99.90
13251;DHT22;6692;50.710;7.180;2022-10-30T02:37:22;16.10;99.90
13251;DHT22;6692;50.710;7.180;2022-10-30T02:39:23;16.00;99.90
13251;DHT22;6692;50.710;7.180;2022-10-30T02:41:23;16.10;99.90
13251;DHT22;6692;50.710;7.180;2022-10-30T02:43:24;16.20;99.90
13251;DHT22;6692;50.710;7.180;2022-10-30T02:45:25;16.20;99.90
13251;DHT22;6692;50.710;7.180;2022-10-30T02:47:27;16.20;99.90
13251;DHT22;6692;50.710;7.180;2022-10-30T02:49:26;16.10;99.90
13251;DHT22;6692;50.710;7.180;2022-10-30T02:51:27;16.10;99.90
13251;DHT22;6692;50.710;7.180;2022-10-30T02:53:27;16.20;99.90
13251;DHT22;6692;50.710;7.180;2022-10-30T02:55:29;16.20;99.90
13251;DHT22;6692;50.710;7.180;2022-10-30T02:57:29;16.10;99.90
13251;DHT22;6692;50.710;7.180;2022-10-30T02:59:30;16.10;99.90
13251;DHT22;6692;50.710;7.180;2022-10-30T03:01:31;16.10;99.90
13251;DHT22;6692;50.710;7.180;2022-10-30T03:03:31;16.10;99.90
13251;DHT22;6692;50.710;7.180;2022-10-30T03:05:32;16.00;99.90
13251;DHT22;6692;50.710;7.180;2022-10-30T03:07:33;16.00;99.90
13251;DHT22;6692;50.710;7.180;2022-10-30T03:09:33;15.90;99.90
13251;DHT22;6692;50.710;7.180;2022-10-30T03:11:34;15.80;99.90
13251;DHT22;6692;50.710;7.180;2022-10-30T03:13:35;15.80;99.90
13251;DHT22;6692;50.710;7.180;2022-10-30T03:15:35;15.70;99.90
13251;DHT22;6692;50.710;7.180;2022-10-30T03:17:36;15.60;99.90
13251;DHT22;6692;50.710;7.180;2022-10-30T03:19:37;15.60;99.90
13251;DHT22;6692;50.710;7.180;2022-10-30T03:21:37;15.50;99.90
13251;DHT22;6692;50.710;7.180;2022-10-30T03:23:38;15.50;99.90
13251;DHT22;6692;50.710;7.180;2022-10-30T03:25:38;15.40;99.90
13251;DHT22;6692;50.710;7.180;2022-10-30T03:27:39;15.40;99.90
13251;DHT22;6692;50.710;7.180;2022-10-30T03:29:40;15.40;99.90
13251;DHT22;6692;50.710;7.180;2022-10-30T03:31:40;15.40;99.90
13251;DHT22;6692;50.710;7.180;2022-10-30T03:33:42;15.30;99.90
13251;DHT22;6692;50.710;7.180;2022-10-30T03:35:43;15.30;99.90
13251;DHT22;6692;50.710;7.180;2022-10-30T03:37:43;15.30;99.90
13251;DHT22;6692;50.710;7.180;2022-10-30T03:39:44;15.20;99.90
13251;DHT22;6692;50.710;7.180;2022-10-30T03:41:45;15.20;99.90
13251;DHT22;6692;50.710;7.180;2022-10-30T03:43:46;15.20;99.90
13251;DHT22;6692;50.710;7.180;2022-10-30T03:45:47;15.20;99.90
13251;DHT22;6692;50.710;7.180;2022-10-30T03:47:47;15.10;99.90
13251;DHT22;6692;50.710;7.180;2022-10-30T03:49:48;15.10;99.90
13251;DHT22;6692;50.710;7.180;2022-10-30T03:51:48;15.00;99.90
13251;DHT22;6692;50.710;7.180;2022-10-30T03:53:50;15.00;99.90
13251;DHT22;6692;50.710;7.180;2022-10-30T03:55:52;15.00;99.90
13251;DHT22;6692;50.710;7.180;2022-10-30T03:57:52;15.00;99.90
13251;DHT22;6692;50.710;7.180;2022-10-30T03:59:53;15.00;99.90
13251;DHT22;6692;50.710;7.180;2022-10-30T04:01:54;15.00;99.90
13251;DHT22;6692;50.710;7.180;2022-10-30T04:03:55;14.90;99.90
13251;DHT22;6692;50.710;7.180;2022-10-30T04:05:56;14.90;99.90
13251;DHT22;6692;50.710;7.180;2022-10-30T04:07:57;14.80;99.90
13251;DHT22;6692;50.710;7.180;2022-10-30T04:09:57;14.90;99.90
13251;DHT22;6692;50.710;7.180;2022-10-30T04:11:58;14.80;99.90
13251;DHT22;6692;50.710;7.180;2022-10-30T04:13:58;14.80;99.90
13251;DHT22;6692;50.710;7.180;2022-10-30T04:15:59;14.70;99.90
13251;DHT22;6692;50.710;7.180;2022-10-30T04:18:00;14.70;99.90
13251;DHT22;6692;50.710;7.180;2022-10-30T04:20:01;14.60;99.90
13251;DHT22;6692;50.710;7.180;2022-10-30T04:22:03;14.60;99.90
13251;DHT22;6692;50.710;7.180;2022-10-30T04:24:04;14.50;99.90
13251;DHT22;6692;50.710;7.180;2022-10-30T04:26:04;14.50;99.90
13251;DHT22;6692;50.710;7.180;2022-10-30T04:28:05;14.50;99.90
13251;DHT22;6692;50.710;7.180;2022-10-30T04:30:07;14.50;99.90
13251;DHT22;6692;50.710;7.180;2022-10-30T04:32:08;14.50;99.90
13251;DHT22;6692;50.710;7.180;2022-10-30T04:34:08;14.50;99.90
13251;DHT22;6692;50.710;7.180;2022-10-30T04:36:09;14.50;99.90
13251;DHT22;6692;50.710;7.180;2022-10-30T04:38:11;14.40;99.90
13251;DHT22;6692;50.710;7.180;2022-10-30T04:40:11;14.40;99.90
13251;DHT22;6692;50.710;7.180;2022-10-30T04:42:11;14.40;99.90
13251;DHT22;6692;50.710;7.180;2022-10-30T04:44:12;14.30;99.90
13251;DHT22;6692;50.710;7.180;2022-10-30T04:46:13;14.30;99.90
13251;DHT22;6692;50.710;7.180;2022-10-30T04:48:15;14.30;99.90
13251;DHT22;6692;50.710;7.180;2022-10-30T04:50:15;14.30;99.90
13251;DHT22;6692;50.710;7.180;2022-10-30T04:52:17;14.30;99.90
13251;DHT22;6692;50.710;7.180;2022-10-30T04:54:17;14.30;99.90
13251;DHT22;6692;50.710;7.180;2022-10-30T04:56:18;14.30;99.90
13251;DHT22;6692;50.710;7.180;2022-10-30T04:58:19;14.30;99.90
13251;DHT22;6692;50.710;7.180;2022-10-30T05:00:19;14.30;99.90
13251;DHT22;6692;50.710;7.180;2022-10-30T05:02:21;14.20;99.90
13251;DHT22;6692;50.710;7.180;2022-10-30T05:04:22;14.20;99.90
13251;DHT22;6692;50.710;7.180;2022-10-30T05:06:24;14.20;99.90
13251;DHT22;6692;50.710;7.180;2022-10-30T05:08:24;14.20;99.90
13251;DHT22;6692;50.710;7.180;2022-10-30T05:10:25;14.10;99.90
13251;DHT22;6692;50.710;7.180;2022-10-30T05:12:25;14.10;99.90
13251;DHT22;6692;50.710;7.180;2022-10-30T05:14:29;14.10;99.90
13251;DHT22;6692;50.710;7.180;2022-10-30T05:16:29;14.00;99.90
13251;DHT22;6692;50.710;7.180;2022-10-30T05:18:30;14.00;99.90
13251;DHT22;6692;50.710;7.180;2022-10-30T05:20:31;14.00;99.90
13251;DHT22;6692;50.710;7.180;2022-10-30T05:22:32;13.90;99.90
13251;DHT22;6692;50.710;7.180;2022-10-30T05:24:33;13.90;99.90
13251;DHT22;6692;50.710;7.180;2022-10-30T05:26:34;13.90;99.90
13251;DHT22;6692;50.710;7.180;2022-10-30T05:28:35;13.90;99.90
13251;DHT22;6692;50.710;7.180;2022-10-30T05:30:36;13.90;99.90
13251;DHT22;6692;50.710;7.180;2022-10-30T05:32:37;13.80;99.90
13251;DHT22;6692;50.710;7.180;2022-10-30T05:34:38;13.90;99.90
13251;DHT22;6692;50.710;7.180;2022-10-30T05:36:39;13.80;99.90
13251;DHT22;6692;50.710;7.180;2022-10-30T05:38:41;13.80;99.90
13251;DHT22;6692;50.710;7.180;2022-10-30T05:40:44;13.80;99.90
13251;DHT22;6692;50.710;7.180;2022-10-30T05:42:46;13.80;99.90
13251;DHT22;6692;50.710;7.180;2022-10-30T05:44:47;13.80;99.90
13251;DHT22;6692;50.710;7.180;2022-10-30T05:46:48;13.80;99.90
13251;DHT22;6692;50.710;7.180;2022-10-30T05:48:50;13.80;99.90
13251;DHT22;6692;50.710;7.180;2022-10-30T05:50:51;13.70;99.90
13251;DHT22;6692;50.710;7.180;2022-10-30T05:52:56;13.70;99.90
13251;DHT22;6692;50.710;7.180;2022-10-30T05:54:57;13.70;99.90
13251;DHT22;6692;50.710;7.180;2022-10-30T05:56:57;13.70;99.90
13251;DHT22;6692;50.710;7.180;2022-10-30T05:58:59;13.70;99.90
13251;DHT22;6692;50.710;7.180;2022-10-30T06:01:04;13.60;99.90
13251;DHT22;6692;50.710;7.180;2022-10-30T06:03:02;13.60;99.90
13251;DHT22;6692;50.710;7.180;2022-10-30T06:05:04;13.60;99.90
13251;DHT22;6692;50.710;7.180;2022-10-30T06:07:04;13.60;99.90
13251;DHT22;6692;50.710;7.180;2022-10-30T06:09:05;13.60;99.90
13251;DHT22;6692;50.710;7.180;2022-10-30T06:11:06;13.60;99.90
13251;DHT22;6692;50.710;7.180;2022-10-30T06:13:08;13.60;99.90
13251;DHT22;6692;50.710;7.180;2022-10-30T06:15:08;13.50;99.90
13251;DHT22;6692;50.710;7.180;2022-10-30T06:17:09;13.60;99.90
13251;DHT22;6692;50.710;7.180;2022-10-30T06:19:10;13.50;99.90
13251;DHT22;6692;50.710;7.180;2022-10-30T06:21:12;13.50;99.90
13251;DHT22;6692;50.710;7.180;2022-10-30T06:23:12;13.50;99.90
13251;DHT22;6692;50.710;7.180;2022-10-30T06:25:14;13.50;99.90
13251;DHT22;6692;50.710;7.180;2022-10-30T06:27:14;13.50;99.90
13251;DHT22;6692;50.710;7.180;2022-10-30T06:29:15;13.50;99.90
13251;DHT22;6692;50.710;7.180;2022-10-30T06:31:16;13.60;99.90
13251;DHT22;6692;50.710;7.180;2022-10-30T06:33:16;13.60;99.90
13251;DHT22;6692;50.710;7.180;2022-10-30T06:35:18;13.60;99.90
13251;DHT22;6692;50.710;7.180;2022-10-30T06:37:18;13.60;99.90
13251;DHT22;6692;50.710;7.180;2022-10-30T06:39:20;13.60;99.90
13251;DHT22;6692;50.710;7.180;2022-10-30T06:41:20;13.60;99.90
13251;DHT22;6692;50.710;7.180;2022-10-30T06:43:22;13.60;99.90
13251;DHT22;6692;50.710;7.180;2022-10-30T06:45:22;13.60;99.90
13251;DHT22;6692;50.710;7.180;2022-10-30T06:47:24;13.60;99.90
13251;DHT22;6692;50.710;7.180;2022-10-30T06:49:24;13.60;99.90
13251;DHT22;6692;50.710;7.180;2022-10-30T06:51:25;13.60;99.90
13251;DHT22;6692;50.710;7.180;2022-10-30T06:53:26;13.70;99.90
13251;DHT22;6692;50.710;7.180;2022-10-30T06:55:26;13.70;99.90
13251;DHT22;6692;50.710;7.180;2022-10-30T06:57:27;13.70;99.90
13251;DHT22;6692;50.710;7.180;2022-10-30T06:59:28;13.70;99.90
13251;DHT22;6692;50.710;7.180;2022-10-30T07:01:28;13.70;99.90
13251;DHT22;6692;50.710;7.180;2022-10-30T07:03:29;13.70;99.90
13251;DHT22;6692;50.710;7.180;2022-10-30T07:05:30;13.80;99.90
13251;DHT22;6692;50.710;7.180;2022-10-30T07:07:31;13.70;99.90
13251;DHT22;6692;50.710;7.180;2022-10-30T07:09:32;13.80;99.90
13251;DHT22;6692;50.710;7.180;2022-10-30T07:11:33;13.80;99.90
13251;DHT22;6692;50.710;7.180;2022-10-30T07:13:34;13.80;99.90
13251;DHT22;6692;50.710;7.180;2022-10-30T07:15:35;13.80;99.90
13251;DHT22;6692;50.710;7.180;2022-10-30T07:17:36;13.90;99.90
13251;DHT22;6692;50.710;7.180;2022-10-30T07:19:37;13.80;99.90
13251;DHT22;6692;50.710;7.180;2022-10-30T07:21:38;13.90;99.90
13251;DHT22;6692;50.710;7.180;2022-10-30T07:23:39;13.90;99.90
13251;DHT22;6692;50.710;7.180;2022-10-30T07:25:40;13.80;99.90
13251;DHT22;6692;50.710;7.180;2022-10-30T07:27:43;13.90;99.90
13251;DHT22;6692;50.710;7.180;2022-10-30T07:29:44;13.90;99.90
13251;DHT22;6692;50.710;7.180;2022-10-30T07:31:46;13.90;99.90
13251;DHT22;6692;50.710;7.180;2022-10-30T07:33:46;13.90;99.90
13251;DHT22;6692;50.710;7.180;2022-10-30T07:35:47;14.00;99.90
13251;DHT22;6692;50.710;7.180;2022-10-30T07:37:48;14.00;99.90
13251;DHT22;6692;50.710;7.180;2022-10-30T07:39:48;14.10;99.90
13251;DHT22;6692;50.710;7.180;2022-10-30T07:41:49;14.10;99.90
13251;DHT22;6692;50.710;7.180;2022-10-30T07:43:49;14.20;99.90
13251;DHT22;6692;50.710;7.180;2022-10-30T07:45:51;14.30;99.90
13251;DHT22;6692;50.710;7.180;2022-10-30T07:47:52;14.30;99.90
13251;DHT22;6692;50.710;7.180;2022-10-30T07:49:52;14.40;99.90
13251;DHT22;6692;50.710;7.180;2022-10-30T07:51:53;14.40;99.90
13251;DHT22;6692;50.710;7.180;2022-10-30T07:53:53;14.50;99.90
13251;DHT22;6692;50.710;7.180;2022-10-30T07:55:54;14.60;99.90
13251;DHT22;6692;50.710;7.180;2022-10-30T07:57:55;14.60;99.90
13251;DHT22;6692;50.710;7.180;2022-10-30T07:59:55;14.70;99.90
13251;DHT22;6692;50.710;7.180;2022-10-30T08:01:56;14.80;99.90
13251;DHT22;6692;50.710;7.180;2022-10-30T08:03:57;14.80;99.90
13251;DHT22;6692;50.710;7.180;2022-10-30T08:05:57;14.90;99.90
13251;DHT22;6692;50.710;7.180;2022-10-30T08:07:59;14.90;99.90
13251;DHT22;6692;50.710;7.180;2022-10-30T08:10:00;15.00;99.90
13251;DHT22;6692;50.710;7.180;2022-10-30T08:12:01;15.10;99.90
13251;DHT22;6692;50.710;7.180;2022-10-30T08:14:03;15.10;99.90
13251;DHT22;6692;50.710;7.180;2022-10-30T08:16:04;15.10;99.90
13251;DHT22;6692;50.710;7.180;2022-10-30T08:18:05;15.10;99.90
13251;DHT22;6692;50.710;7.180;2022-10-30T08:20:06;15.20;99.90
13251;DHT22;6692;50.710;7.180;2022-10-30T08:22:07;15.20;99.90
13251;DHT22;6692;50.710;7.180;2022-10-30T08:24:09;15.40;99.90
13251;DHT22;6692;50.710;7.180;2022-10-30T08:26:09;15.40;99.90
13251;DHT22;6692;50.710;7.180;2022-10-30T08:28:10;15.40;99.90
13251;DHT22;6692;50.710;7.180;2022-10-30T08:30:11;15.50;99.90
13251;DHT22;6692;50.710;7.180;2022-10-30T08:32:13;15.60;99.90
13251;DHT22;6692;50.710;7.180;2022-10-30T08:34:14;15.60;99.90
13251;DHT22;6692;50.710;7.180;2022-10-30T08:36:15;15.80;99.90
13251;DHT22;6692;50.710;7.180;2022-10-30T08:38:16;15.80;99.90
13251;DHT22;6692;50.710;7.180;2022-10-30T08:40:17;15.90;99.90
13251;DHT22;6692;50.710;7.180;2022-10-30T08:42:18;15.90;99.90
13251;DHT22;6692;50.710;7.180;2022-10-30T08:44:18;16.00;99.90
13251;DHT22;6692;50.710;7.180;2022-10-30T08:46:19;16.00;99.90
13251;DHT22;6692;50.710;7.180;2022-10-30T08:48:20;16.10;99.90
13251;DHT22;6692;50.710;7.180;2022-10-30T08:50:20;16.10;99.90
13251;DHT22;6692;50.710;7.180;2022-10-30T08:52:22;16.30;99.90
13251;DHT22;6692;50.710;7.180;2022-10-30T08:54:22;16.30;99.90
13251;DHT22;6692;50.710;7.180;2022-10-30T08:56:23;16.30;99.90
13251;DHT22;6692;50.710;7.180;2022-10-30T08:58:24;16.50;99.90
13251;DHT22;6692;50.710;7.180;2022-10-30T09:00:25;16.40;99.90
13251;DHT22;6692;50.710;7.180;2022-10-30T09:02:26;16.50;99.90
13251;DHT22;6692;50.710;7.180;2022-10-30T09:04:26;16.60;99.90
13251;DHT22;6692;50.710;7.180;2022-10-30T09:06:28;16.70;99.90
13251;DHT22;6692;50.710;7.180;2022-10-30T09:08:28;16.70;99.90
13251;DHT22;6692;50.710;7.180;2022-10-30T09:10:28;16.80;99.90
13251;DHT22;6692;50.710;7.180;2022-10-30T09:12:29;16.80;99.90
13251;DHT22;6692;50.710;7.180;2022-10-30T09:14:30;16.90;99.90
13251;DHT22;6692;50.710;7.180;2022-10-30T09:16:30;16.90;99.90
13251;DHT22;6692;50.710;7.180;2022-10-30T09:18:31;16.90;99.90
13251;DHT22;6692;50.710;7.180;2022-10-30T09:20:32;17.00;99.90
13251;DHT22;6692;50.710;7.180;2022-10-30T09:22:32;17.00;99.90
13251;DHT22;6692;50.710;7.180;2022-10-30T09:24:33;17.10;99.90
13251;DHT22;6692;50.710;7.180;2022-10-30T09:26:34;17.10;99.90
13251;DHT22;6692;50.710;7.180;2022-10-30T09:28:36;17.20;99.90
13251;DHT22;6692;50.710;7.180;2022-10-30T09:30:36;17.20;99.90
13251;DHT22;6692;50.710;7.180;2022-10-30T09:32:37;17.30;99.90
13251;DHT22;6692;50.710;7.180;2022-10-30T09:34:38;17.30;99.90
13251;DHT22;6692;50.710;7.180;2022-10-30T09:36:40;17.40;99.90
13251;DHT22;6692;50.710;7.180;2022-10-30T09:38:40;17.30;99.90
13251;DHT22;6692;50.710;7.180;2022-10-30T09:40:51;17.40;99.90
13251;DHT22;6692;50.710;7.180;2022-10-30T09:42:46;17.50;99.90
13251;DHT22;6692;50.710;7.180;2022-10-30T09:45:06;17.40;99.90
13251;DHT22;6692;50.710;7.180;2022-10-30T09:47:52;17.60;99.90
13251;DHT22;6692;50.710;7.180;2022-10-30T09:52:05;17.70;99.90
13251;DHT22;6692;50.710;7.180;2022-10-30T09:54:15;17.80;99.90
13251;DHT22;6692;50.710;7.180;2022-10-30T09:56:17;17.90;99.90
13251;DHT22;6692;50.710;7.180;2022-10-30T09:58:19;17.90;99.90
13251;DHT22;6692;50.710;7.180;2022-10-30T10:00:18;17.90;99.90
13251;DHT22;6692;50.710;7.180;2022-10-30T10:02:26;18.00;99.90
13251;DHT22;6692;50.710;7.180;2022-10-30T10:04:27;18.00;99.90
13251;DHT22;6692;50.710;7.180;2022-10-30T10:06:26;18.00;99.90
13251;DHT22;6692;50.710;7.180;2022-10-30T10:08:33;18.10;99.90
13251;DHT22;6692;50.710;7.180;2022-10-30T10:10:43;18.10;99.90
13251;DHT22;6692;50.710;7.180;2022-10-30T10:12:45;18.30;99.90
13251;DHT22;6692;50.710;7.180;2022-10-30T10:14:45;18.30;99.90
13251;DHT22;6692;50.710;7.180;2022-10-30T10:16:47;18.40;99.90
13251;DHT22;6692;50.710;7.180;2022-10-30T10:18:47;18.40;99.90
13251;DHT22;6692;50.710;7.180;2022-10-30T10:20:49;18.50;99.90
13251;DHT22;6692;50.710;7.180;2022-10-30T10:22:49;18.70;99.90
13251;DHT22;6692;50.710;7.180;2022-10-30T10:24:49;18.60;99.90
13251;DHT22;6692;50.710;7.180;2022-10-30T10:27:04;18.70;99.90
13251;DHT22;6692;50.710;7.180;2022-10-30T10:29:27;18.80;99.90
13251;DHT22;6692;50.710;7.180;2022-10-30T10:31:35;18.90;99.90
13251;DHT22;6692;50.710;7.180;2022-10-30T10:33:37;18.90;99.90
13251;DHT22;6692;50.710;7.180;2022-10-30T10:36:03;19.00;99.90
13251;DHT22;6692;50.710;7.180;2022-10-30T10:38:26;19.00;99.90
13251;DHT22;6692;50.710;7.180;2022-10-30T10:42:41;19.10;99.90
13251;DHT22;6692;50.710;7.180;2022-10-30T10:44:48;19.10;99.90
13251;DHT22;6692;50.710;7.180;2022-10-30T10:46:57;19.20;99.90
13251;DHT22;6692;50.710;7.180;2022-10-30T10:49:12;19.30;99.90
13251;DHT22;6692;50.710;7.180;2022-10-30T10:51:13;19.40;99.90
13251;DHT22;6692;50.710;7.180;2022-10-30T10:55:31;19.40;99.90
13251;DHT22;6692;50.710;7.180;2022-10-30T10:57:32;19.40;99.90
13251;DHT22;6692;50.710;7.180;2022-10-30T10:59:35;19.40;99.90
13251;DHT22;6692;50.710;7.180;2022-10-30T11:01:37;19.40;99.90
13251;DHT22;6692;50.710;7.180;2022-10-30T11:03:49;19.50;99.90
13251;DHT22;6692;50.710;7.180;2022-10-30T11:06:03;19.50;99.90
13251;DHT22;6692;50.710;7.180;2022-10-30T11:10:18;19.70;99.90
13251;DHT22;6692;50.710;7.180;2022-10-30T11:12:35;19.80;99.90
13251;DHT22;6692;50.710;7.180;2022-10-30T11:14:35;19.90;99.90
13251;DHT22;6692;50.710;7.180;2022-10-30T11:16:41;19.90;99.90
13251;DHT22;6692;50.710;7.180;2022-10-30T11:18:38;20.00;99.90
13251;DHT22;6692;50.710;7.180;2022-10-30T11:20:41;20.10;99.90
13251;DHT22;6692;50.710;7.180;2022-10-30T11:22:41;20.20;99.90
13251;DHT22;6692;50.710;7.180;2022-10-30T11:24:42;20.30;99.90
13251;DHT22;6692;50.710;7.180;2022-10-30T11:26:43;20.30;99.90
13251;DHT22;6692;50.710;7.180;2022-10-30T11:28:50;20.30;99.90
13251;DHT22;6692;50.710;7.180;2022-10-30T11:30:50;20.30;99.90
13251;DHT22;6692;50.710;7.180;2022-10-30T11:32:50;20.40;99.90
13251;DHT22;6692;50.710;7.180;2022-10-30T11:36:59;20.50;99.90
13251;DHT22;6692;50.710;7.180;2022-10-30T11:39:07;20.40;99.90
13251;DHT22;6692;50.710;7.180;2022-10-30T11:41:00;20.50;99.90
13251;DHT22;6692;50.710;7.180;2022-10-30T11:43:02;20.60;99.90
13251;DHT22;6692;50.710;7.180;2022-10-30T11:45:03;20.60;99.90
13251;DHT22;6692;50.710;7.180;2022-10-30T11:47:05;20.70;99.90
13251;DHT22;6692;50.710;7.180;2022-10-30T11:49:05;20.70;99.90
13251;DHT22;6692;50.710;7.180;2022-10-30T11:51:06;20.70;99.90
13251;DHT22;6692;50.710;7.180;2022-10-30T11:53:10;20.70;99.90
13251;DHT22;6692;50.710;7.180;2022-10-30T11:55:19;20.70;99.90
13251;DHT22;6692;50.710;7.180;2022-10-30T11:57:20;20.70;99.90
13251;DHT22;6692;50.710;7.180;2022-10-30T11:59:21;20.80;99.90
13251;DHT22;6692;50.710;7.180;2022-10-30T12:01:24;20.80;99.90
13251;DHT22;6692;50.710;7.180;2022-10-30T12:03:27;20.80;99.90
13251;DHT22;6692;50.710;7.180;2022-10-30T12:05:36;20.90;99.90
13251;DHT22;6692;50.710;7.180;2022-10-30T12:07:35;20.90;99.90
13251;DHT22;6692;50.710;7.180;2022-10-30T12:09:40;20.90;99.90
13251;DHT22;6692;50.710;7.180;2022-10-30T12:11:41;20.90;99.90
13251;DHT22;6692;50.710;7.180;2022-10-30T12:13:43;21.00;99.90
13251;DHT22;6692;50.710;7.180;2022-10-30T12:15:44;21.00;99.90
13251;DHT22;6692;50.710;7.180;2022-10-30T12:18:01;21.00;99.90
13251;DHT22;6692;50.710;7.180;2022-10-30T12:20:03;21.10;99.90
13251;DHT22;6692;50.710;7.180;2022-10-30T12:22:03;21.20;99.90
13251;DHT22;6692;50.710;7.180;2022-10-30T12:24:05;21.20;99.90
13251;DHT22;6692;50.710;7.180;2022-10-30T12:26:07;21.20;99.90
13251;DHT22;6692;50.710;7.180;2022-10-30T12:28:13;21.20;99.90
13251;DHT22;6692;50.710;7.180;2022-10-30T12:30:16;21.20;99.90
13251;DHT22;6692;50.710;7.180;2022-10-30T12:32:17;21.30;99.90
13251;DHT22;6692;50.710;7.180;2022-10-30T12:34:52;21.30;99.90
13251;DHT22;6692;50.710;7.180;2022-10-30T12:36:54;21.40;99.90
13251;DHT22;6692;50.710;7.180;2022-10-30T12:38:58;21.50;99.90
13251;DHT22;6692;50.710;7.180;2022-10-30T12:41:16;21.60;99.90
13251;DHT22;6692;50.710;7.180;2022-10-30T12:43:18;21.70;99.90
13251;DHT22;6692;50.710;7.180;2022-10-30T12:45:20;21.80;99.90
13251;DHT22;6692;50.710;7.180;2022-10-30T12:47:28;21.90;99.90
13251;DHT22;6692;50.710;7.180;2022-10-30T12:49:30;21.90;99.90
13251;DHT22;6692;50.710;7.180;2022-10-30T12:51:38;22.00;99.90
13251;DHT22;6692;50.710;7.180;2022-10-30T12:53:38;21.90;99.90
13251;DHT22;6692;50.710;7.180;2022-10-30T12:55:41;21.80;99.90
13251;DHT22;6692;50.710;7.180;2022-10-30T12:57:42;21.80;99.90
13251;DHT22;6692;50.710;7.180;2022-10-30T13:01:55;21.70;99.90
13251;DHT22;6692;50.710;7.180;2022-10-30T13:03:56;21.70;99.90
13251;DHT22;6692;50.710;7.180;2022-10-30T13:05:58;21.80;99.90
13251;DHT22;6692;50.710;7.180;2022-10-30T13:10:27;21.70;99.90
13251;DHT22;6692;50.710;7.180;2022-10-30T13:12:30;21.70;99.90
13251;DHT22;6692;50.710;7.180;2022-10-30T13:14:46;21.70;99.90
13251;DHT22;6692;50.710;7.180;2022-10-30T13:16:45;21.50;99.90
13251;DHT22;6692;50.710;7.180;2022-10-30T13:18:46;21.50;99.90
13251;DHT22;6692;50.710;7.180;2022-10-30T13:21:10;21.40;99.90
13251;DHT22;6692;50.710;7.180;2022-10-30T13:23:10;21.40;99.90
13251;DHT22;6692;50.710;7.180;2022-10-30T13:25:14;21.20;99.90